Time;durP1;ratioP1;P1;durP2;ratioP2;P2;SDS_P1;SDS_P2;PMS_P1;PMS_P2;Temp;Humidity;BMP_temperature;BMP_pressure;BME280_temperature;BME280_humidity;BME280_pressure;Samples;Min_cycle;Max_cycle;Signal;HPM_P1;HPM_P2
2024/04/15 00:00:12;;;;;;;22.52;8.27;;;;;;;9.02;100.00;101426.31;5345237;26;19997;-66
2024/04/15 00:02:37;;;;;;;21.98;8.40;;;;;;;8.98;100.00;101421.84;5390024;26;20000;-67
2024/04/15 00:05:03;;;;;;;23.15;8.60;;;;;;;8.95;100.00;101426.16;5347249;26;19997;-67
2024/04/15 00:07:28;;;;;;;22.63;8.73;;;;;;;8.88;100.00;101415.50;5347520;26;20001;-67
2024/04/15 00:09:53;;;;;;;21.92;8.63;;;;;;;8.76;100.00;101417.88;5347126;26;20009;-67
2024/04/15 00:12:19;;;;;;;22.95;8.55;;;;;;;8.78;100.00;101410.00;5345165;26;19997;-66
2024/04/15 00:14:45;;;;;;;23.10;8.65;;;;;;;8.70;100.00;101410.72;5389597;26;19993;-65
2024/04/15 00:17:10;;;;;;;21.65;8.23;;;;;;;8.70;100.00;101410.72;5347095;26;19997;-65
2024/04/15 00:19:36;;;;;;;22.90;8.25;;;;;;;8.63;100.00;101408.81;5346755;26;20044;-67
2024/04/15 00:22:02;;;;;;;21.85;8.10;;;;;;;8.59;100.00;101395.53;5345616;26;20091;-68
2024/04/15 00:24:27;;;;;;;22.35;8.55;;;;;;;8.54;100.00;101390.19;5346136;26;20012;-67
2024/04/15 00:26:53;;;;;;;24.30;8.68;;;;;;;8.49;100.00;101382.19;5347085;26;20008;-68
2024/04/15 00:29:18;;;;;;;22.80;8.77;;;;;;;8.47;100.00;101378.59;5346880;26;20005;-67
2024/04/15 00:31:43;;;;;;;22.83;8.52;;;;;;;8.45;100.00;101375.06;5347071;26;20007;-66
2024/04/15 00:34:09;;;;;;;21.83;8.40;;;;;;;8.38;100.00;101363.47;5340016;26;20063;-67
2024/04/15 00:36:36;;;;;;;23.50;9.00;;;;;;;8.29;100.00;101370.28;5346888;26;20001;-66
2024/04/15 00:39:01;;;;;;;23.20;9.02;;;;;;;8.25;100.00;101368.44;5346680;26;20032;-67
2024/04/15 00:41:26;;;;;;;22.77;9.20;;;;;;;8.13;100.00;101363.78;5346863;26;20052;-67
2024/04/15 00:43:52;;;;;;;21.85;8.93;;;;;;;8.03;100.00;101358.28;5346561;26;19993;-68
2024/04/15 00:46:17;;;;;;;23.08;8.98;;;;;;;8.00;100.00;101357.34;5344698;26;19997;-67
2024/04/15 00:48:44;;;;;;;22.98;9.30;;;;;;;7.92;100.00;101341.38;5345292;26;20070;-68
2024/04/15 00:51:12;;;;;;;23.00;9.43;;;;;;;7.87;100.00;101339.50;5339643;26;20037;-67
2024/04/15 00:53:38;;;;;;;24.13;9.75;;;;;;;7.84;100.00;101329.78;5346457;26;20015;-67
2024/04/15 00:56:04;;;;;;;24.10;9.90;;;;;;;7.78;100.00;101314.72;5345043;26;19997;-67
2024/04/15 00:58:30;;;;;;;23.63;10.05;;;;;;;7.74;100.00;101317.25;5346228;26;20335;-65
2024/04/15 01:00:57;;;;;;;24.08;9.82;;;;;;;7.68;100.00;101323.25;5346271;26;20028;-66
2024/04/15 01:03:24;;;;;;;24.10;10.23;;;;;;;7.65;100.00;101320.56;5388434;26;20005;-66
2024/04/15 01:05:49;;;;;;;24.98;10.38;;;;;;;7.64;100.00;101314.38;5346496;26;20001;-67
2024/04/15 01:08:15;;;;;;;23.63;10.20;;;;;;;7.54;100.00;101309.75;5346689;26;19997;-65
2024/04/15 01:10:40;;;;;;;24.80;10.48;;;;;;;7.54;100.00;101308.88;5346657;26;19997;-67
2024/04/15 01:13:06;;;;;;;24.00;10.27;;;;;;;7.46;100.00;101300.81;5346323;26;20020;-65
2024/04/15 01:15:32;;;;;;;23.90;9.27;;;;;;;7.47;100.00;101302.56;5346338;26;20432;-66
2024/04/15 01:17:57;;;;;;;23.13;9.07;;;;;;;7.44;100.00;101297.25;5345893;26;19999;-68
2024/04/15 01:20:23;;;;;;;22.48;9.05;;;;;;;7.38;100.00;101299.72;5346275;26;20005;-67
2024/04/15 01:22:55;;;;;;;22.30;8.68;;;;;;;7.37;100.00;101301.47;5346774;26;20432;-68
2024/04/15 01:25:21;;;;;;;21.77;8.13;;;;;;;7.41;100.00;101294.53;5346046;26;20012;-67
2024/04/15 01:27:47;;;;;;;20.88;7.57;;;;;;;7.38;100.00;101291.84;5345731;26;19993;-66
2024/04/15 01:30:12;;;;;;;22.30;8.18;;;;;;;7.32;100.00;101293.47;5345842;26;19997;-67
2024/04/15 01:32:38;;;;;;;21.02;7.72;;;;;;;7.33;100.00;101294.34;5346106;26;20008;-68
2024/04/15 01:35:03;;;;;;;20.67;7.10;;;;;;;7.40;100.00;101300.66;5346026;26;19997;-68
2024/04/15 01:37:29;;;;;;;20.63;7.18;;;;;;;7.42;100.00;101291.06;5348129;26;19997;-69
2024/04/15 01:39:54;;;;;;;21.30;7.10;;;;;;;7.40;100.00;101288.41;5349390;26;19997;-65
2024/04/15 01:42:19;;;;;;;21.50;6.95;;;;;;;7.39;100.00;101283.09;5349310;26;20004;-65
2024/04/15 01:44:45;;;;;;;19.92;6.60;;;;;;;7.39;100.00;101283.09;5349151;26;20012;-69
2024/04/15 01:47:10;;;;;;;20.17;6.63;;;;;;;7.36;100.00;101278.66;5349340;26;20102;-69
2024/04/15 01:49:35;;;;;;;20.42;6.15;;;;;;;7.29;100.00;101274.97;5349191;26;20433;-71
2024/04/15 01:52:01;;;;;;;18.70;6.28;;;;;;;7.26;100.00;101267.00;5349026;26;20136;-65
2024/04/15 01:54:26;;;;;;;21.67;6.25;;;;;;;7.23;100.00;101272.19;5349177;26;20012;-65
2024/04/15 01:56:52;;;;;;;20.55;5.97;;;;;;;7.17;100.00;101269.41;5349127;26;20358;-68
2024/04/15 01:59:17;;;;;;;19.88;5.57;;;;;;;7.11;100.00;101258.75;5349121;26;20011;-72
2024/04/15 02:01:42;;;;;;;19.20;5.50;;;;;;;7.10;100.00;101249.97;5349151;26;19997;-70
2024/04/15 02:04:08;;;;;;;18.65;5.50;;;;;;;7.11;100.00;101245.59;5391383;26;20008;-71
2024/04/15 02:06:33;;;;;;;18.60;5.50;;;;;;;7.10;100.00;101244.69;5349113;26;20008;-66
2024/04/15 02:08:58;;;;;;;19.83;5.32;;;;;;;7.06;100.00;101234.97;5348561;26;20001;-65
2024/04/15 02:11:23;;;;;;;18.38;4.88;;;;;;;7.00;100.00;101231.28;5347121;26;19993;-68
2024/04/15 02:13:49;;;;;;;20.65;5.55;;;;;;;6.90;100.00;101232.78;5347378;26;20066;-65
2024/04/15 02:16:14;;;;;;;19.13;4.90;;;;;;;6.85;100.00;101230.06;5348572;26;19993;-65
2024/04/15 02:18:40;;;;;;;18.27;5.03;;;;;;;6.82;100.00;101222.09;5346764;26;20001;-65
2024/04/15 02:21:05;;;;;;;19.15;4.70;;;;;;;6.78;100.00;101217.59;5348812;26;19992;-67
2024/04/15 02:23:31;;;;;;;19.77;5.00;;;;;;;6.74;100.00;101215.75;5346682;26;20420;-69
2024/04/15 02:25:56;;;;;;;17.30;4.57;;;;;;;6.66;100.00;101215.56;5348870;26;19992;-66
2024/04/15 02:28:22;;;;;;;19.98;4.93;;;;;;;6.67;100.00;101205.91;5346873;26;19996;-66
2024/04/15 02:30:50;;;;;;;18.58;4.78;;;;;;;6.64;100.00;101214.63;5348641;26;20007;-66
2024/04/15 02:33:16;;;;;;;19.10;4.47;;;;;;;6.66;100.00;101212.03;5348481;26;20020;-67
2024/04/15 02:35:41;;;;;;;18.92;4.80;;;;;;;6.64;100.00;101201.50;5346846;26;20084;-65
2024/04/15 02:38:07;;;;;;;19.38;4.70;;;;;;;6.62;100.00;101200.56;5348529;26;20004;-66
2024/04/15 02:40:32;;;;;;;17.40;4.30;;;;;;;6.60;100.00;101197.88;5346744;26;20001;-72
2024/04/15 02:42:58;;;;;;;18.20;4.38;;;;;;;6.58;100.00;101190.81;5348199;26;20067;-68
2024/04/15 02:45:23;;;;;;;17.30;4.25;;;;;;;6.51;100.00;101189.78;5348354;26;19997;-70
2024/04/15 02:47:49;;;;;;;18.63;4.10;;;;;;;6.54;100.00;101199.44;5347972;26;19997;-72
2024/04/15 02:50:14;;;;;;;18.60;4.22;;;;;;;6.52;100.00;101190.66;5346534;26;20008;-67
2024/04/15 02:52:41;;;;;;;16.70;4.13;;;;;;;6.49;100.00;101194.06;5318054;26;19995;-71
2024/04/15 02:55:07;;;;;;;22.25;5.00;;;;;;;6.44;100.00;101190.47;5348505;26;20037;-72
2024/04/15 02:57:32;;;;;;;19.25;4.75;;;;;;;6.44;100.00;101182.59;5348301;26;19999;-72
2024/04/15 02:59:58;;;;;;;18.38;4.60;;;;;;;6.39;100.00;101192.97;5348126;26;20008;-72
2024/04/15 03:02:23;;;;;;;16.85;3.90;;;;;;;6.41;100.00;101182.50;5346452;26;20335;-70
2024/04/15 03:04:48;;;;;;;19.63;4.45;;;;;;;6.36;100.00;101184.09;5348146;26;20074;-73
2024/04/15 03:07:14;;;;;;;17.38;4.07;;;;;;;6.35;100.00;101183.22;5348030;26;19997;-72
2024/04/15 03:09:39;;;;;;;20.65;4.40;;;;;;;6.30;100.00;101178.69;5348251;26;20005;-70
2024/04/15 03:12:05;;;;;;;20.42;4.38;;;;;;;6.27;100.00;101169.88;5390421;26;20033;-70
2024/04/15 03:14:31;;;;;;;17.90;4.03;;;;;;;6.25;100.00;101166.31;5347898;26;20024;-66
2024/04/15 03:16:56;;;;;;;18.33;4.30;;;;;;;6.23;100.00;101161.88;5347964;26;19997;-72
2024/04/15 03:19:22;;;;;;;17.50;3.90;;;;;;;6.23;100.00;101156.63;5347547;26;19992;-73
2024/04/15 03:21:48;;;;;;;18.58;4.10;;;;;;;6.31;100.00;101159.47;5347871;26;20340;-72
2024/04/15 03:24:14;;;;;;;19.48;4.22;;;;;;;6.30;100.00;101148.06;5346079;26;20425;-72
2024/04/15 03:26:40;;;;;;;19.77;3.95;;;;;;;6.26;100.00;101152.34;5347755;26;20335;-72
2024/04/15 03:29:05;;;;;;;20.30;4.30;;;;;;;6.26;100.00;101147.09;5348028;26;20502;-72
2024/04/15 03:31:31;;;;;;;18.50;4.20;;;;;;;6.35;100.00;101148.19;5347783;26;19997;-72
2024/04/15 03:33:56;;;;;;;19.70;4.50;;;;;;;6.37;100.00;101149.13;5347400;26;20000;-65
2024/04/15 03:36:21;;;;;;;19.02;4.30;;;;;;;6.36;100.00;101142.09;5347585;26;20000;-64
2024/04/15 03:38:47;;;;;;;18.92;4.60;;;;;;;6.35;100.00;101135.03;5347420;26;20066;-64
2024/04/15 03:41:12;;;;;;;20.17;4.13;;;;;;;6.33;100.00;101131.50;5347703;26;20005;-64
2024/04/15 03:43:37;;;;;;;19.33;4.30;;;;;;;6.27;100.00;101124.34;5347606;26;20004;-64
2024/04/15 03:46:03;;;;;;;20.17;4.50;;;;;;;6.26;100.00;101130.44;5347072;26;20005;-66
2024/04/15 03:48:28;;;;;;;19.40;4.53;;;;;;;6.23;100.00;101120.78;5347608;26;20005;-67
2024/04/15 03:50:54;;;;;;;19.55;4.13;;;;;;;6.17;100.00;101125.84;5347546;26;20398;-67
2024/04/15 03:53:19;;;;;;;20.80;4.30;;;;;;;6.16;100.00;101110.94;5316702;26;20009;-66
2024/04/15 03:55:52;;;;;;;20.33;3.97;;;;;;;6.11;100.00;101102.94;5345382;26;20026;-65
2024/04/15 03:58:18;;;;;;;20.73;4.00;;;;;;;6.11;100.00;101099.44;5341130;26;20001;-67
2024/04/15 04:00:43;;;;;;;19.25;4.10;;;;;;;6.10;100.00;101092.38;5345390;26;20444;-67
2024/04/15 04:03:08;;;;;;;18.00;4.10;;;;;;;6.09;100.00;101090.63;5347300;26;19997;-67
2024/04/15 04:05:34;;;;;;;20.23;4.35;;;;;;;6.07;100.00;101087.06;5360735;26;20001;-65
2024/04/15 04:07:59;;;;;;;20.08;4.60;;;;;;;6.03;100.00;101083.47;5345254;26;20149;-67
2024/04/15 04:10:25;;;;;;;18.75;4.50;;;;;;;6.05;100.00;101088.78;5347294;26;19997;-73
2024/04/15 04:12:50;;;;;;;20.20;4.70;;;;;;;6.02;100.00;101083.44;5347269;26;19993;-72
2024/04/15 04:15:15;;;;;;;21.48;4.32;;;;;;;6.04;100.00;101089.59;5347199;26;20033;-72
2024/04/15 04:17:44;;;;;;;21.10;4.70;;;;;;;6.01;100.00;101087.78;5347193;26;19993;-72
2024/04/15 04:20:09;;;;;;;20.80;4.57;;;;;;;5.99;100.00;101086.88;5346750;26;20001;-73
2024/04/15 04:22:34;;;;;;;19.48;4.50;;;;;;;6.03;100.00;101078.22;5346863;26;20001;-73
2024/04/15 04:25:00;;;;;;;19.83;4.80;;;;;;;6.11;100.00;101078.44;5347318;26;20001;-71
2024/04/15 04:27:25;;;;;;;20.27;4.50;;;;;;;6.08;100.00;101067.84;5347091;26;19993;-71
2024/04/15 04:29:50;;;;;;;21.48;4.78;;;;;;;6.08;100.00;101059.97;5346993;26;20044;-72
2024/04/15 04:32:16;;;;;;;18.83;4.53;;;;;;;6.08;100.00;101062.59;5347002;26;19993;-70
2024/04/15 04:34:41;;;;;;;20.33;4.47;;;;;;;6.10;100.00;101063.53;5339950;26;19997;-72
2024/04/15 04:37:06;;;;;;;23.27;5.43;;;;;;;6.14;100.00;101051.38;5344918;26;20004;-71
2024/04/15 04:39:32;;;;;;;21.58;4.82;;;;;;;6.16;100.00;101050.56;5345076;26;20005;-71
2024/04/15 04:41:57;;;;;;;21.42;4.90;;;;;;;6.10;100.00;101045.16;5346810;26;20070;-71
2024/04/15 04:44:23;;;;;;;21.27;4.57;;;;;;;6.10;100.00;101043.44;5346621;26;19996;-72
2024/04/15 04:46:49;;;;;;;21.98;4.95;;;;;;;6.08;100.00;101036.34;5346841;26;19999;-72
2024/04/15 04:49:14;;;;;;;19.25;4.40;;;;;;;6.14;100.00;101036.50;5346459;26;20005;-73
2024/04/15 04:51:39;;;;;;;20.02;4.35;;;;;;;6.15;100.00;101040.03;5346947;26;20004;-66
2024/04/15 04:54:05;;;;;;;21.45;5.10;;;;;;;6.21;100.00;101038.44;5346351;26;20075;-73
2024/04/15 04:56:30;;;;;;;21.13;4.47;;;;;;;6.20;100.00;101031.41;5346657;26;20356;-72
2024/04/15 04:58:57;;;;;;;18.65;4.50;;;;;;;6.25;100.00;101044.66;5346678;26;20001;-70
2024/04/15 05:01:22;;;;;;;21.20;5.00;;;;;;;6.25;100.00;101037.66;5346249;26;20066;-73
2024/04/15 05:03:49;;;;;;;22.23;4.53;;;;;;;6.31;100.00;101039.56;5346134;26;20012;-67
2024/04/15 05:06:16;;;;;;;20.60;4.63;;;;;;;6.28;100.00;101034.25;5346161;26;20486;-66
2024/04/15 05:08:45;;;;;;;20.40;5.10;;;;;;;6.32;100.00;101032.56;5339490;26;20061;-64
2024/04/15 05:11:11;;;;;;;20.73;4.57;;;;;;;6.30;100.00;101021.16;5348594;26;19997;-69
2024/04/15 05:13:37;;;;;;;21.50;4.53;;;;;;;6.33;100.00;101026.47;5349492;26;19995;-65
2024/04/15 05:16:06;;;;;;;21.98;5.13;;;;;;;6.32;100.00;101027.31;5349519;26;20012;-65
2024/04/15 05:18:32;;;;;;;20.48;4.63;;;;;;;6.25;100.00;101013.16;5348848;26;20001;-66
2024/04/15 05:20:59;;;;;;;19.25;4.80;;;;;;;6.21;100.00;101016.56;5349658;26;20440;-65
2024/04/15 05:23:25;;;;;;;20.25;4.50;;;;;;;6.33;100.00;101010.72;5347799;26;19993;-69
2024/04/15 05:25:50;;;;;;;20.13;4.70;;;;;;;6.30;100.00;101018.53;5349182;26;20007;-71
2024/04/15 05:28:16;;;;;;;19.77;4.60;;;;;;;6.26;100.00;101014.91;5349369;26;19997;-67
2024/04/15 05:30:41;;;;;;;20.02;4.88;;;;;;;6.25;100.00;101008.78;5349329;26;19997;-73
2024/04/15 05:33:06;;;;;;;22.15;5.03;;;;;;;6.33;100.00;101010.72;5347349;26;20039;-71
2024/04/15 05:35:32;;;;;;;22.63;4.75;;;;;;;6.27;100.00;101014.06;5349427;26;20074;-73
2024/04/15 05:37:57;;;;;;;21.73;5.30;;;;;;;6.30;100.00;101002.78;5349185;26;19993;-70
2024/04/15 05:40:22;;;;;;;20.80;4.88;;;;;;;6.33;100.00;100994.97;5349274;26;20071;-73
2024/04/15 05:42:48;;;;;;;20.63;4.75;;;;;;;6.38;100.00;101007.34;5349455;26;20004;-70
2024/04/15 05:45:13;;;;;;;20.02;4.55;;;;;;;6.43;100.00;100986.44;5347527;26;20004;-72
2024/04/15 05:47:38;;;;;;;19.83;4.82;;;;;;;6.50;100.00;100988.38;5348953;26;19993;-68
2024/04/15 05:50:04;;;;;;;20.60;4.78;;;;;;;6.53;100.00;100993.69;5391805;26;19997;-65
2024/04/15 05:52:30;;;;;;;21.52;4.90;;;;;;;6.58;100.00;100994.69;5349093;26;20009;-66
2024/04/15 05:54:55;;;;;;;19.05;4.35;;;;;;;6.65;100.00;101000.97;5348718;26;20008;-65
2024/04/15 05:57:21;;;;;;;19.40;4.40;;;;;;;6.65;100.00;100993.09;5348799;26;20009;-64
2024/04/15 05:59:47;;;;;;;21.45;4.70;;;;;;;6.70;100.00;100978.31;5349169;26;20008;-65
2024/04/15 06:02:13;;;;;;;22.42;5.30;;;;;;;6.74;100.00;100989.78;5342334;26;19996;-67
2024/04/15 06:04:38;;;;;;;19.48;4.43;;;;;;;6.78;100.00;100979.34;5348782;26;20007;-66
2024/04/15 06:07:04;;;;;;;21.27;4.60;;;;;;;6.80;100.00;100976.75;5348793;26;20011;-65
2024/04/15 06:09:30;;;;;;;18.67;4.63;;;;;;;6.87;100.00;100983.94;5349041;26;20043;-67
2024/04/15 06:11:55;;;;;;;22.10;4.80;;;;;;;6.95;100.00;100977.09;5348837;26;20343;-67
2024/04/15 06:14:22;;;;;;;18.85;4.45;;;;;;;7.01;100.00;100967.59;5346687;26;20007;-66
2024/04/15 06:16:52;;;;;;;21.40;4.72;;;;;;;7.05;100.00;100967.69;5349173;26;20001;-66
2024/04/15 06:19:17;;;;;;;18.80;4.47;;;;;;;7.08;100.00;100978.25;5342240;26;19993;-65
2024/04/15 06:21:42;;;;;;;21.20;4.63;;;;;;;7.12;100.00;100961.69;5347695;26;20010;-66
2024/04/15 06:24:08;;;;;;;21.08;4.80;;;;;;;7.23;100.00;100966.28;5346919;26;19996;-65
2024/04/15 06:26:34;;;;;;;20.95;4.70;;;;;;;7.19;100.00;100957.44;5348759;26;20088;-64
2024/04/15 06:29:01;;;;;;;19.40;4.55;;;;;;;7.17;100.00;100956.53;5348557;26;20004;-67
2024/04/15 06:31:26;;;;;;;19.17;4.53;;;;;;;7.24;100.00;100953.16;5391373;26;20001;-65
2024/04/15 06:33:51;;;;;;;22.55;5.00;;;;;;;7.31;100.00;100955.06;5348542;26;20001;-71
2024/04/15 06:36:17;;;;;;;21.65;5.10;;;;;;;7.42;100.00;100944.72;5348843;26;20001;-71
2024/04/15 06:38:42;;;;;;;20.90;4.30;;;;;;;7.49;100.00;100933.47;5348381;26;19993;-71
2024/04/15 06:41:08;;;;;;;20.25;4.78;;;;;;;7.49;100.00;100933.47;5348437;26;20005;-71
2024/04/15 06:43:33;;;;;;;20.38;4.70;;;;;;;7.56;100.00;100923.97;5348333;26;20008;-70
2024/04/15 06:45:58;;;;;;;21.63;4.85;;;;;;;7.65;100.00;100923.22;5348294;26;20001;-72
2024/04/15 06:48:24;;;;;;;20.17;4.78;;;;;;;7.66;100.00;100933.78;5348443;26;20004;-71
2024/04/15 06:50:50;;;;;;;18.98;4.60;;;;;;;7.78;100.00;100924.34;5348559;26;20000;-70
2024/04/15 06:53:15;;;;;;;19.98;4.55;;;;;;;7.84;100.00;100903.38;5348481;26;20038;-71
2024/04/15 06:55:42;;;;;;;19.10;4.68;;;;;;;7.91;100.00;100901.75;5348406;26;19997;-71
2024/04/15 06:58:07;;;;;;;22.13;4.97;;;;;;;8.00;100.00;100900.13;5348374;26;20012;-72
2024/04/15 07:00:33;;;;;;;20.42;4.85;;;;;;;8.07;100.00;100892.31;5348402;26;19997;-71
2024/04/15 07:02:58;;;;;;;22.05;5.38;;;;;;;8.14;100.00;100876.66;5347789;26;20418;-71
2024/04/15 07:05:24;;;;;;;20.40;5.15;;;;;;;8.23;100.00;100878.53;5346586;26;20001;-73
2024/04/15 07:07:49;;;;;;;20.63;5.13;;;;;;;8.29;100.00;100875.09;5347736;26;20092;-72
2024/04/15 07:10:14;;;;;;;23.35;5.18;;;;;;;8.42;100.00;100868.22;5347765;26;20000;-70
2024/04/15 07:12:40;;;;;;;20.23;4.88;;;;;;;8.62;100.00;100868.53;5338475;26;20075;-65
2024/04/15 07:15:05;;;;;;;20.48;5.00;;;;;;;8.88;100.00;100860.94;5346259;26;20001;-65
2024/04/15 07:17:31;;;;;;;20.15;4.72;;;;;;;9.18;100.00;100849.84;5347935;26;20007;-69
2024/04/15 07:19:56;;;;;;;20.27;4.55;;;;;;;9.31;100.00;100847.34;5347794;26;20005;-72
2024/04/15 07:22:22;;;;;;;20.92;4.93;;;;;;;9.34;100.00;100845.59;5347842;26;19993;-71
2024/04/15 07:24:49;;;;;;;20.45;4.40;;;;;;;9.45;100.00;100839.53;5347804;26;19997;-72
2024/04/15 07:27:14;;;;;;;22.05;4.95;;;;;;;9.47;100.00;100836.06;5347987;26;19993;-70
2024/04/15 07:29:39;;;;;;;20.77;4.80;;;;;;;9.47;100.00;100824.63;5347700;26;20001;-72
2024/04/15 07:32:05;;;;;;;19.98;4.70;;;;;;;9.50;100.00;100827.28;5348784;26;19997;-72
2024/04/15 07:34:31;;;;;;;20.15;4.40;;;;;;;9.55;100.00;100817.63;5346457;26;20074;-72
2024/04/15 07:36:56;;;;;;;19.23;4.50;;;;;;;9.55;100.00;100807.97;5340475;26;19993;-73
2024/04/15 07:39:21;;;;;;;18.95;4.82;;;;;;;9.60;100.00;100803.59;5346125;26;20001;-72
2024/04/15 07:41:47;;;;;;;19.33;4.32;;;;;;;9.60;100.00;100787.78;5347442;26;20012;-70
2024/04/15 07:44:12;;;;;;;19.35;4.38;;;;;;;9.68;100.00;100779.91;5347736;26;20497;-71
2024/04/15 07:46:37;;;;;;;19.33;4.38;;;;;;;9.74;100.00;100777.31;5347392;26;19997;-72
2024/04/15 07:49:03;;;;;;;19.90;4.43;;;;;;;9.76;100.00;100796.69;5347176;26;20001;-70
2024/04/15 07:51:28;;;;;;;19.35;4.43;;;;;;;9.75;100.00;100775.56;5345823;26;20070;-71
2024/04/15 07:53:54;;;;;;;19.08;4.18;;;;;;;9.89;100.00;100765.97;5347318;26;20076;-70
2024/04/15 07:56:20;;;;;;;19.55;4.50;;;;;;;10.02;100.00;100772.22;5389164;26;20349;-71
2024/04/15 07:58:45;;;;;;;20.42;4.75;;;;;;;10.03;100.00;100768.72;5346893;26;20048;-72
2024/04/15 08:01:11;;;;;;;17.50;4.30;;;;;;;10.05;100.00;100759.03;5347563;26;19993;-67
2024/04/15 08:03:36;;;;;;;17.00;3.80;;;;;;;10.03;100.00;100755.50;5347061;26;20047;-67
2024/04/15 08:06:02;;;;;;;18.73;3.80;;;;;;;10.04;100.00;100759.88;5347454;26;19993;-67
2024/04/15 08:08:28;;;;;;;19.42;3.92;;;;;;;10.23;100.00;100741.50;5347380;26;20000;-67
2024/04/15 08:10:53;;;;;;;16.13;3.90;;;;;;;10.55;100.00;100751.31;5347295;26;20293;-68
2024/04/15 08:13:18;;;;;;;18.90;4.25;;;;;;;10.58;100.00;100735.47;5347138;26;20008;-67
2024/04/15 08:15:45;;;;;;;19.02;4.00;;;;;;;10.41;100.00;100730.13;5345045;26;19993;-67
2024/04/15 08:18:11;;;;;;;21.08;4.35;;;;;;;10.35;100.00;100749.47;5347157;26;20070;-68
2024/04/15 08:20:36;;;;;;;17.88;3.90;;;;;;;10.19;100.00;100726.50;5347326;26;20008;-66
2024/04/15 08:23:03;;;;;;;17.95;4.20;;;;;;;10.21;100.00;100727.41;5346871;26;19997;-65
2024/04/15 08:25:28;;;;;;;17.15;3.90;;;;;;;10.27;100.00;100709.78;5346704;26;20070;-65
2024/04/15 08:27:53;;;;;;;18.33;3.92;;;;;;;10.41;100.00;100714.28;5347362;26;20070;-67
2024/04/15 08:30:19;;;;;;;18.02;4.00;;;;;;;10.38;100.00;100707.25;5347014;26;19997;-65
2024/04/15 08:32:45;;;;;;;19.05;4.00;;;;;;;10.37;100.00;100710.75;5345254;26;20428;-65
2024/04/15 08:35:11;;;;;;;16.38;3.92;;;;;;;10.39;100.00;100690.47;5346952;26;20001;-65
2024/04/15 08:37:36;;;;;;;19.75;4.10;;;;;;;10.58;100.00;100694.06;5346533;26;20000;-65
2024/04/15 08:40:01;;;;;;;18.35;3.83;;;;;;;10.75;100.00;100691.44;5346647;26;20029;-66
2024/04/15 08:42:50;;;;;;;18.50;3.80;;;;;;;11.02;100.00;100691.47;5347118;26;20008;-67
2024/04/15 08:45:20;;;;;;;19.40;3.78;;;;;;;11.42;100.00;100665.84;5343797;26;20439;-65
2024/04/15 08:47:54;;;;;;;18.95;3.80;;;;;;;11.43;100.00;100670.28;5346537;26;19993;-68
2024/04/15 08:50:20;;;;;;;18.15;3.47;;;;;;;11.15;100.00;100650.88;5346677;26;19993;-67
2024/04/15 08:52:54;;;;;;;17.55;3.75;;;;;;;10.97;100.00;100654.44;5346696;26;20037;-65
2024/04/15 08:55:21;;;;;;;17.38;3.50;;;;;;;10.99;100.00;100642.97;5346598;26;20075;-67
2024/04/15 08:57:47;;;;;;;17.35;3.60;;;;;;;11.27;100.00;100637.66;5346239;26;19997;-67
2024/04/15 09:00:18;;;;;;;16.23;3.55;;;;;;;11.58;100.00;100642.88;5346561;26;20012;-65
2024/04/15 09:02:44;;;;;;;19.52;3.80;;;;;;;11.48;100.00;100634.06;5346441;26;20073;-65
2024/04/15 09:05:09;;;;;;;18.05;3.60;;;;;;;11.69;100.00;100638.44;5346247;26;20008;-65
2024/04/15 09:07:35;;;;;;;16.85;3.45;;;;;;;12.04;100.00;100607.38;5346267;26;20001;-65
2024/04/15 09:10:00;;;;;;;16.60;3.38;;;;;;;12.36;100.00;100593.97;5346594;26;20025;-65
2024/04/15 09:12:34;;;;;;;19.20;3.30;;;;;;;12.67;100.00;100595.50;5346409;26;20453;-66
2024/04/15 09:15:00;;;;;;;19.05;3.40;;;;;;;13.27;100.00;100591.41;5340055;26;20425;-67
2024/04/15 09:17:25;;;;;;;16.02;3.22;;;;;;;13.30;100.00;100586.91;5346096;26;20000;-66
2024/04/15 09:19:51;;;;;;;15.57;3.10;;;;;;;13.71;100.00;100590.91;5346083;26;20000;-66
2024/04/15 09:22:16;;;;;;;16.13;3.20;;;;;;;13.40;100.00;100598.38;5346028;26;19993;-67
2024/04/15 09:24:42;;;;;;;16.42;3.33;;;;;;;13.06;100.00;100570.38;5346086;26;20394;-65
2024/04/15 09:27:08;;;;;;;16.33;3.20;;;;;;;12.78;100.00;100567.09;5344313;26;19997;-66
2024/04/15 09:29:33;;;;;;;19.05;3.25;;;;;;;12.30;100.00;100545.41;5345996;26;20016;-67
2024/04/15 09:31:59;;;;;;;12.48;3.15;;;;;;;11.89;100.00;100573.03;5346402;26;20070;-66
2024/04/15 09:34:25;;;;;;;15.38;3.10;;;;;;;11.95;100.00;100544.75;5345784;26;20463;-66
2024/04/15 09:36:52;;;;;;;15.13;2.95;;;;;;;11.63;100.00;100518.41;5345847;26;20305;-66
2024/04/15 09:39:19;;;;;;;18.05;3.30;;;;;;;11.51;100.00;100529.94;5345905;26;20075;-65
2024/04/15 09:41:47;;;;;;;14.73;3.00;;;;;;;11.46;100.00;100508.78;5345906;26;20005;-68
2024/04/15 09:44:13;;;;;;;13.73;2.90;;;;;;;11.69;100.00;100502.50;5345590;26;20005;-70
2024/04/15 09:46:41;;;;;;;13.52;2.80;;;;;;;11.83;100.00;100511.22;5345912;26;19993;-70
2024/04/15 09:49:07;;;;;;;15.13;3.13;;;;;;;12.29;100.00;100485.31;5345721;26;20007;-67
2024/04/15 09:51:33;;;;;;;15.40;3.22;;;;;;;12.35;100.00;100511.81;5345730;26;20066;-65
2024/04/15 09:54:04;;;;;;;12.20;2.70;;;;;;;12.80;100.00;100495.47;5338571;26;20005;-65
2024/04/15 09:56:32;;;;;;;15.55;2.90;;;;;;;12.40;100.00;100470.22;5338857;26;20420;-66
2024/04/15 09:59:00;;;;;;;16.33;2.90;;;;;;;11.96;100.00;100452.94;5341722;26;20001;-65
2024/04/15 10:01:32;;;;;;;18.20;3.25;;;;;;;11.88;100.00;100454.72;5349252;26;20012;-65
2024/04/15 10:04:01;;;;;;;16.02;3.00;;;;;;;11.86;100.00;100445.00;5341828;26;20005;-65
2024/04/15 10:06:37;;;;;;;14.63;3.55;;;;;;;11.68;100.00;100459.25;5348698;26;20033;-65
2024/04/15 10:09:03;;;;;;;18.08;3.15;;;;;;;11.51;100.00;100424.06;5342970;26;20445;-66
2024/04/15 10:11:29;;;;;;;16.60;3.10;;;;;;;11.68;100.00;100397.50;5342370;26;20005;-66
2024/04/15 10:13:57;;;;;;;19.30;3.08;;;;;;;11.82;100.00;100400.91;5348539;26;20285;-66
2024/04/15 10:16:22;;;;;;;16.35;3.20;;;;;;;11.90;100.00;100395.56;5348798;26;19996;-70
2024/04/15 10:18:58;;;;;;;14.95;3.17;;;;;;;11.88;100.00;100394.66;5391073;26;20033;-71
2024/04/15 10:21:24;;;;;;;14.20;2.90;;;;;;;11.92;100.00;100384.94;5348871;26;20066;-68
2024/04/15 10:23:49;;;;;;;14.55;2.90;;;;;;;11.74;100.00;100391.28;5348845;26;19993;-70
2024/04/15 10:26:15;;;;;;;16.40;3.40;;;;;;;11.64;100.00;100371.91;5348691;26;20417;-66
2024/04/15 10:28:40;;;;;;;13.27;2.88;;;;;;;11.59;100.00;100368.41;5346840;26;20071;-71
2024/04/15 10:31:06;;;;;;;13.52;2.80;;;;;;;11.48;100.00;100358.78;5348708;26;20009;-66
2024/04/15 10:33:31;;;;;;;16.20;3.10;;;;;;;11.39;100.00;100342.97;5348530;26;19997;-65
2024/04/15 10:35:57;;;;;;;14.32;3.22;;;;;;;11.32;100.00;100370.38;5348477;26;19997;-66
2024/04/15 10:38:27;;;;;;;16.67;2.97;;;;;;;11.32;100.00;100346.56;5348135;26;19997;-66
2024/04/15 10:40:54;;;;;;;19.45;3.10;;;;;;;11.24;100.00;100336.03;5348743;26;20391;-71
2024/04/15 10:43:24;;;;;;;16.38;3.00;;;;;;;11.24;100.00;100324.56;5346765;26;20001;-70
2024/04/15 10:45:50;;;;;;;16.25;3.00;;;;;;;11.31;100.00;100303.34;5348065;26;20007;-73
2024/04/15 10:48:16;;;;;;;14.43;2.80;;;;;;;11.41;100.00;100293.56;5348704;26;20063;-71
2024/04/15 10:50:42;;;;;;;14.30;2.90;;;;;;;11.44;100.00;100290.88;5348517;26;20004;-71
2024/04/15 10:53:10;;;;;;;15.82;2.80;;;;;;;11.42;100.00;100292.66;5348251;26;20436;-71
2024/04/15 10:55:35;;;;;;;16.20;2.70;;;;;;;11.39;100.00;100276.81;5346566;26;20001;-66
2024/04/15 10:58:01;;;;;;;14.70;2.90;;;;;;;11.31;100.00;100266.31;5348518;26;20015;-73
2024/04/15 11:00:26;;;;;;;14.57;2.80;;;;;;;11.26;100.00;100259.28;5348210;26;20007;-71
2024/04/15 11:02:55;;;;;;;15.05;3.05;;;;;;;11.03;100.00;100254.16;5348382;26;20001;-73
2024/04/15 11:05:22;;;;;;;14.63;2.90;;;;;;;9.81;100.00;100254.66;5347995;26;19997;-74
2024/04/15 11:07:48;;;;;;;13.50;2.90;;;;;;;9.31;100.00;100249.41;5347731;26;20344;-74